createdAt,value
2022-08-18T00:00:47.892Z,34.4
2022-08-18T00:02:45.503Z,18.8
2022-08-18T00:04:48.617Z,34.7
2022-08-18T00:06:40.659Z,22
2022-08-18T00:08:46.205Z,28.7
2022-08-18T00:10:43.745Z,27.5
2022-08-18T00:12:41.334Z,23.4
2022-08-18T00:14:38.879Z,26.9
2022-08-18T00:16:36.476Z,24
2022-08-18T00:18:34.047Z,21.8
2022-08-18T00:20:31.614Z,25.7
2022-08-18T00:22:37.173Z,27
2022-08-18T00:24:34.778Z,24.1
2022-08-18T00:26:36.660Z,23.7
2022-08-18T00:28:29.941Z,28
2022-08-18T00:30:27.547Z,33.7
2022-08-18T00:36:28.205Z,34
2022-08-18T00:40:23.442Z,21.1
2022-08-18T00:42:28.919Z,46.5
2022-08-18T00:44:18.493Z,18.4
2022-08-18T00:46:16.109Z,27.8
2022-08-18T00:48:13.686Z,26.7
2022-08-18T00:50:19.212Z,21.4
2022-08-18T00:52:16.770Z,27.9
2022-08-18T00:54:14.355Z,21.9
2022-08-18T00:55:17.127Z,24.5
2022-08-18T00:57:14.720Z,35.2
2022-08-18T00:59:12.326Z,32.6
2022-08-18T01:01:09.974Z,23.3
2022-08-18T01:03:15.434Z,23
2022-08-18T01:05:13.009Z,21.2
2022-08-18T01:07:10.606Z,28.3
2022-08-18T01:09:08.206Z,25
2022-08-18T01:11:05.801Z,26.9
2022-08-18T01:13:03.361Z,32.7
2022-08-18T01:15:00.953Z,25.9
2022-08-18T01:17:06.507Z,33.4
2022-08-18T01:19:04.088Z,21.9
2022-08-18T01:22:59.242Z,22.9
2022-08-18T01:24:56.852Z,19.9
2022-08-18T01:26:54.435Z,21.8
2022-08-18T01:32:55.184Z,20.1
2022-08-18T01:34:52.732Z,22.9
2022-08-18T01:38:47.915Z,24.3
2022-08-18T01:41:17.512Z,22.6
2022-08-18T01:42:43.084Z,33.6
2022-08-18T01:44:48.693Z,24.9
2022-08-18T01:46:46.207Z,15.9
2022-08-18T01:48:43.767Z,17.4
2022-08-18T01:51:44.113Z,30.4
2022-08-18T01:53:41.724Z,21.3
2022-08-18T01:57:45.255Z,30.8
2022-08-18T01:59:42.430Z,22
2022-08-18T02:05:35.151Z,30
2022-08-18T02:07:36.062Z,35.2
2022-08-18T02:09:30.299Z,22
2022-08-18T02:11:35.851Z,33.1
2022-08-18T02:13:33.455Z,30.5
2022-08-18T02:15:31.001Z,25.7
2022-08-18T02:17:28.603Z,23.2
2022-08-18T02:19:26.210Z,22.4
2022-08-18T02:21:23.755Z,18.8
2022-08-18T02:25:26.868Z,25.2
2022-08-18T02:27:24.442Z,32.6
2022-08-18T02:31:25.290Z,27.3
2022-08-18T02:35:14.753Z,30.7
2022-08-18T02:37:15.356Z,23.4
2022-08-18T02:43:13.017Z,21.9
2022-08-18T02:49:25.609Z,22.9
2022-08-18T02:51:31.119Z,25.3
2022-08-18T02:53:30.259Z,29.6
2022-08-18T02:55:27.803Z,24.8
2022-08-18T02:57:25.360Z,24.1
2022-08-18T02:59:22.945Z,44.9
2022-08-18T03:01:20.573Z,21.3
2022-08-18T03:03:18.087Z,21.4
2022-08-18T03:05:23.644Z,17.3
2022-08-18T03:07:21.230Z,19.2
2022-08-18T03:09:18.814Z,27.1
2022-08-18T03:11:16.382Z,32
2022-08-18T03:13:13.971Z,26.5
2022-08-18T03:15:11.562Z,19.5
2022-08-18T03:17:09.140Z,22.7
2022-08-18T03:19:14.651Z,24.4
2022-08-18T03:21:12.244Z,30.9
2022-08-18T03:23:10.228Z,27.6
2022-08-18T03:25:07.411Z,24
2022-08-18T03:31:00.181Z,30.9
2022-08-18T03:33:05.698Z,33.8
2022-08-18T03:35:03.282Z,24.8
2022-08-18T03:37:00.852Z,22.4
2022-08-18T03:38:03.618Z,22.7
2022-08-18T03:40:01.239Z,18.2
2022-08-18T03:42:01.073Z,29.6
2022-08-18T03:49:57.011Z,30.9
2022-08-18T03:57:47.295Z,18
2022-08-18T03:59:52.855Z,23.6
2022-08-18T04:01:50.463Z,28.8
2022-08-18T04:03:47.985Z,23.2
2022-08-18T04:05:45.558Z,23.5
2022-08-18T04:07:43.154Z,19.3
2022-08-18T04:09:40.762Z,23.6
2022-08-18T04:11:38.324Z,44.9
2022-08-18T04:13:43.867Z,16.5
2022-08-18T04:15:41.446Z,30.7
2022-08-18T04:18:03.315Z,18.8
2022-08-18T04:19:36.598Z,21.1
2022-08-18T04:21:34.171Z,17.9
2022-08-18T04:23:31.836Z,16.5
2022-08-18T04:25:32.746Z,15.4
2022-08-18T04:27:34.821Z,20
2022-08-18T04:29:32.420Z,24.3
2022-08-18T04:31:30.033Z,32.5
2022-08-18T04:34:30.324Z,24.1
2022-08-18T04:36:27.955Z,18.8
2022-08-18T04:38:25.517Z,17.3
2022-08-18T04:40:31.091Z,26.7
2022-08-18T04:42:28.613Z,26.1
2022-08-18T04:44:26.195Z,18.8
2022-08-18T04:46:23.956Z,29
2022-08-18T04:48:21.353Z,20.6
2022-08-18T04:50:18.926Z,21
2022-08-18T04:52:36.966Z,19.5
2022-08-18T04:54:22.001Z,32.3
2022-08-18T04:58:17.179Z,19.1
2022-08-18T05:00:14.739Z,18
2022-08-18T05:02:14.754Z,22.9
2022-08-18T05:08:13.023Z,21.9
2022-08-18T05:10:10.572Z,15.5
2022-08-18T05:12:08.132Z,24
2022-08-18T05:14:05.705Z,33.5
2022-08-18T05:16:10.059Z,30.9
2022-08-18T05:18:00.836Z,22
2022-08-18T05:19:58.403Z,24.2
2022-08-18T05:22:03.963Z,26.6
2022-08-18T05:24:01.559Z,16.4
2022-08-18T05:25:59.090Z,26.7
2022-08-18T05:27:01.838Z,22.2
2022-08-18T05:29:18.177Z,21.9
2022-08-18T05:30:57.013Z,30.4
2022-08-18T05:32:54.565Z,51.5
2022-08-18T05:35:00.108Z,40.5
2022-08-18T05:36:57.658Z,33.8
2022-08-18T05:38:55.222Z,35.8
2022-08-18T05:40:52.796Z,20.4
2022-08-18T05:42:50.388Z,18.8
2022-08-18T05:44:47.982Z,19.6
2022-08-18T05:46:45.534Z,27.2
2022-08-18T05:48:51.068Z,22.2
2022-08-18T05:52:46.210Z,18.3
2022-08-18T05:54:43.780Z,31.3
2022-08-18T06:00:36.525Z,32.4
2022-08-18T06:02:42.156Z,29.9
2022-08-18T06:04:39.632Z,29.8
2022-08-18T06:08:34.767Z,25.6
2022-08-18T06:10:32.362Z,22
2022-08-18T06:12:29.915Z,20.6
2022-08-18T06:14:27.530Z,16.8
2022-08-18T06:16:33.014Z,18.6
2022-08-18T06:22:53.407Z,24
2022-08-18T06:24:49.035Z,22.5
2022-08-18T06:26:46.632Z,16.1
2022-08-18T06:28:52.120Z,31.6
2022-08-18T06:30:49.692Z,28.2
2022-08-18T06:32:47.303Z,20.4
2022-08-18T06:34:44.859Z,29.1
2022-08-18T06:36:42.442Z,13.7
2022-08-18T06:38:39.994Z,12.3
2022-08-18T06:40:37.594Z,32.5
2022-08-18T06:42:43.124Z,20.2
2022-08-18T06:44:40.709Z,13.5
2022-08-18T06:46:38.279Z,14.7
2022-08-18T06:48:35.841Z,15.5
2022-08-18T06:50:33.414Z,22.4
2022-08-18T06:52:31.057Z,27.1
2022-08-18T06:54:28.555Z,17.4
2022-08-18T06:56:34.075Z,11.8
2022-08-18T06:58:31.648Z,12.9
2022-08-18T07:04:24.382Z,15.9
2022-08-18T07:08:19.538Z,13.9
2022-08-18T07:10:25.178Z,17.7
2022-08-18T07:12:22.636Z,26.8
2022-08-18T07:14:20.179Z,22.8
2022-08-18T07:15:22.954Z,17.4
2022-08-18T07:21:15.684Z,23
2022-08-18T07:25:18.805Z,10.7
2022-08-18T07:27:16.363Z,11.4
2022-08-18T07:33:09.078Z,13.2
2022-08-18T07:35:06.669Z,15.5
2022-08-18T07:37:12.203Z,24.2
2022-08-18T07:39:09.766Z,13.6
2022-08-18T07:41:07.365Z,8.9
2022-08-18T07:43:04.914Z,25.2
2022-08-18T07:45:02.513Z,9.1
2022-08-18T07:47:00.120Z,16.3
2022-08-18T07:48:57.649Z,6.5
2022-08-18T07:51:06.609Z,7.2
2022-08-18T07:53:00.746Z,10.7
2022-08-18T07:54:58.310Z,6.6
2022-08-18T07:56:55.838Z,13.9
2022-08-18T07:58:53.419Z,13.5
2022-08-18T08:04:54.012Z,10.3
2022-08-18T08:08:49.135Z,8.2
2022-08-18T08:09:52.272Z,9.2
2022-08-18T08:11:49.426Z,5.1
2022-08-18T08:13:54.532Z,6.6
2022-08-18T08:15:44.607Z,3.8
2022-08-18T08:17:50.110Z,6.9
2022-08-18T08:20:00.662Z,7
2022-08-18T08:21:45.148Z,6.4
2022-08-18T08:23:45.147Z,12.9
2022-08-18T08:25:46.940Z,13.2
2022-08-18T08:27:37.772Z,6.9
2022-08-18T08:29:35.316Z,8.8
2022-08-18T08:31:40.837Z,7.7
2022-08-18T08:33:38.377Z,6.1
2022-08-18T08:35:49.472Z,19.9
2022-08-18T08:37:34.957Z,12.5
2022-08-18T08:47:30.567Z,7.3
2022-08-18T08:51:25.602Z,10.9
2022-08-18T08:53:23.116Z,15.6
2022-08-18T08:55:20.656Z,5.9
2022-08-18T08:57:18.205Z,5.6
2022-08-18T08:59:23.701Z,11
2022-08-18T09:08:16.481Z,5.1
2022-08-18T09:10:13.996Z,6.3
2022-08-18T09:12:19.472Z,5
2022-08-18T09:14:16.985Z,4.9
2022-08-18T09:16:14.840Z,6.3
2022-08-18T09:18:12.017Z,3.4
2022-08-18T09:20:09.539Z,9.6
2022-08-18T09:22:07.029Z,9.6
2022-08-18T09:24:04.530Z,12.3
2022-08-18T09:30:05.089Z,9
2022-08-18T09:32:02.483Z,19.9
2022-08-18T09:35:57.738Z,13.4
2022-08-18T09:37:55.007Z,11.1
2022-08-18T09:40:10.830Z,4.1
2022-08-18T09:41:57.958Z,7.2
2022-08-18T09:43:55.437Z,6
2022-08-18T09:45:52.954Z,4.1
2022-08-18T09:47:50.417Z,5.9
2022-08-18T09:49:51.305Z,4
2022-08-18T09:51:45.398Z,4.9
2022-08-18T09:53:50.876Z,15.4
2022-08-18T09:55:51.946Z,5.7
2022-08-18T09:57:45.839Z,3.4
2022-08-18T10:00:09.399Z,5.5
2022-08-18T10:04:04.142Z,3.9
2022-08-18T10:06:12.585Z,31.4
2022-08-18T10:08:07.133Z,37
2022-08-18T10:10:59.338Z,10
2022-08-18T10:12:02.438Z,10.6
2022-08-18T10:15:56.915Z,15.9
2022-08-18T10:17:54.385Z,10.5
2022-08-18T10:19:59.827Z,4.6
2022-08-18T10:21:57.294Z,3.1
2022-08-18T10:24:14.552Z,7.9
2022-08-18T10:25:52.168Z,5.8
2022-08-18T10:27:49.611Z,5.1
2022-08-18T10:29:47.090Z,3.6
2022-08-18T10:31:44.529Z,4
2022-08-18T10:33:49.950Z,4.6
2022-08-18T10:35:47.381Z,6.3
2022-08-18T10:37:44.840Z,4
2022-08-18T10:39:42.430Z,18.3
2022-08-18T10:43:54.991Z,3.2
2022-08-18T10:45:34.539Z,3.7
2022-08-18T10:47:39.959Z,3.3
2022-08-18T10:49:37.349Z,3.3
2022-08-18T10:51:57.813Z,3.1
2022-08-18T10:52:41.677Z,3.2
2022-08-18T10:54:34.868Z,3.2
2022-08-18T10:56:32.305Z,4.9
2022-08-18T10:58:29.713Z,4
2022-08-18T11:00:35.152Z,8.1
2022-08-18T11:02:32.569Z,4.3
2022-08-18T11:04:34.643Z,4.5
2022-08-18T11:06:27.480Z,4.9
2022-08-18T11:10:30.017Z,2.7
2022-08-18T11:12:19.709Z,2.6
2022-08-18T11:14:25.112Z,2.7
2022-08-18T11:16:22.512Z,7.4
2022-08-18T11:18:19.929Z,6.4
2022-08-18T11:20:17.887Z,2.8
2022-08-18T11:22:16.312Z,4.5
2022-08-18T11:24:13.516Z,5
2022-08-18T11:26:09.602Z,4.4
2022-08-18T11:28:15.059Z,2.3
2022-08-18T11:30:13.504Z,3.5
2022-08-18T11:34:07.310Z,3.8
2022-08-18T11:36:04.733Z,12
2022-08-18T11:38:02.160Z,3
2022-08-18T11:39:59.596Z,2.6
2022-08-18T11:42:05.000Z,7.3
2022-08-18T11:44:02.475Z,3.6
2022-08-18T11:45:59.894Z,3.6
2022-08-18T11:47:02.578Z,4.7
2022-08-18T11:49:00.103Z,5.4
2022-08-18T11:50:57.478Z,7.8
2022-08-18T11:52:55.082Z,9
2022-08-18T11:55:00.334Z,2.2
2022-08-18T11:56:57.773Z,2.6
2022-08-18T11:58:55.212Z,10.5
2022-08-18T12:00:52.653Z,3.8
2022-08-18T12:02:50.120Z,5.9
2022-08-18T12:04:47.906Z,3.4
2022-08-18T12:06:44.949Z,9.7
2022-08-18T12:08:57.172Z,7.4
2022-08-18T12:10:47.807Z,7.3
2022-08-18T12:12:45.230Z,3.2
2022-08-18T12:14:42.660Z,7.8
2022-08-18T12:16:40.112Z,5.6
2022-08-18T12:18:37.533Z,7.6
2022-08-18T12:20:34.956Z,9
2022-08-18T12:22:40.375Z,3.2
2022-08-18T12:24:39.456Z,2.8
2022-08-18T12:26:43.387Z,3.4
2022-08-18T12:28:32.566Z,14
2022-08-18T12:30:29.993Z,4.9
2022-08-18T12:32:41.551Z,7.5
2022-08-18T12:34:26.816Z,6.7
2022-08-18T12:36:30.324Z,4.1
2022-08-18T12:41:27.883Z,10.3
2022-08-18T12:43:25.319Z,3.4
2022-08-18T12:45:22.743Z,11.6
2022-08-18T12:47:20.195Z,4
2022-08-18T12:49:25.607Z,5.5
2022-08-18T12:51:24.762Z,6.4
2022-08-18T12:55:21.984Z,6.9
2022-08-18T12:57:21.937Z,10.1
2022-08-18T12:59:12.762Z,7.4
2022-08-18T13:05:13.085Z,4.7
2022-08-18T13:11:10.440Z,10.6
2022-08-18T13:13:02.872Z,6.2
2022-08-18T13:15:00.320Z,9.8
2022-08-18T13:17:05.756Z,7
2022-08-18T13:19:03.223Z,5.5
2022-08-18T13:22:58.122Z,6.3
2022-08-18T13:24:55.563Z,5.9
2022-08-18T13:26:53.026Z,5.3
2022-08-18T13:41:06.525Z,3.4
2022-08-18T13:45:24.620Z,3.3
2022-08-18T13:47:06.700Z,3.6
2022-08-18T13:49:04.140Z,17.1
2022-08-18T13:52:59.452Z,4.6
2022-08-18T13:54:56.419Z,5.6
2022-08-18T14:02:54.093Z,7.5
2022-08-18T14:04:51.789Z,6.7
2022-08-18T14:06:56.533Z,3.1
2022-08-18T14:08:46.364Z,4.6
2022-08-18T14:10:51.822Z,5.3
2022-08-18T14:12:49.725Z,3.5
2022-08-18T14:14:46.601Z,4.6
2022-08-18T14:16:45.595Z,22.3
2022-08-18T14:18:42.994Z,4.1
2022-08-18T14:20:40.399Z,3.3
2022-08-18T14:22:37.824Z,2.5
2022-08-18T14:24:43.239Z,5.7
2022-08-18T14:28:38.391Z,5.6
2022-08-18T14:29:46.799Z,3.3
2022-08-18T14:31:38.228Z,3.5
2022-08-18T14:33:50.307Z,5.5
2022-08-18T14:36:06.008Z,6.6
2022-08-18T14:37:38.496Z,3.7
2022-08-18T14:39:36.007Z,7.6
2022-08-18T14:41:33.371Z,6.4
2022-08-18T14:43:30.797Z,4.1
2022-08-18T14:45:34.220Z,4.9
2022-08-18T14:47:27.906Z,4.7
2022-08-18T14:49:28.379Z,4.3
2022-08-18T14:51:28.449Z,3.4
2022-08-18T14:53:25.874Z,4.3
2022-08-18T14:55:23.320Z,3.1
2022-08-18T14:59:18.132Z,7.1
2022-08-18T15:01:16.066Z,4.9
2022-08-18T15:03:12.947Z,4.1
2022-08-18T15:05:19.449Z,2.4
2022-08-18T15:07:17.502Z,2.1
2022-08-18T15:09:13.116Z,4.2
2022-08-18T15:15:05.268Z,3.3
2022-08-18T15:17:02.794Z,2.8
2022-08-18T15:19:24.652Z,3.8
2022-08-18T15:23:02.912Z,4.1
2022-08-18T15:24:14.937Z,5.6
2022-08-18T15:26:02.979Z,2.8
2022-08-18T15:28:00.347Z,6.5
2022-08-18T15:32:05.786Z,2.9
2022-08-18T15:34:01.158Z,3.7
2022-08-18T15:43:48.054Z,3.2
2022-08-18T15:47:50.308Z,7.8
2022-08-18T15:49:47.729Z,3.7
2022-08-18T15:51:45.266Z,2.6
2022-08-18T15:53:44.758Z,5.2
2022-08-18T15:55:39.975Z,2.4
2022-08-18T15:57:39.555Z,5.2
2022-08-18T15:59:42.814Z,3.6
2022-08-18T16:01:42.995Z,3.5
2022-08-18T16:03:37.692Z,2.6
2022-08-18T16:05:35.305Z,3
2022-08-18T16:07:39.969Z,7.1
2022-08-18T16:09:30.008Z,3.9
2022-08-18T16:11:29.510Z,8.3
2022-08-18T16:13:37.616Z,5.9
2022-08-18T16:15:31.568Z,3.7
2022-08-18T16:17:31.754Z,6.5
2022-08-18T16:18:30.462Z,6.8
2022-08-18T16:20:27.911Z,15.4
2022-08-18T16:22:25.361Z,4.7
2022-08-18T16:24:22.786Z,2.4
2022-08-18T16:26:28.194Z,3.4
2022-08-18T16:28:34.769Z,3.2
2022-08-18T16:30:23.070Z,2.3
2022-08-18T16:32:20.527Z,2.5
2022-08-18T16:44:13.163Z,4.2
2022-08-18T16:46:10.588Z,5.8
2022-08-18T16:48:08.172Z,8.3
2022-08-18T16:50:05.498Z,3.9
2022-08-18T16:52:02.922Z,4.9
2022-08-18T16:54:08.361Z,17.7
2022-08-18T16:56:05.803Z,3.4
2022-08-18T16:58:03.253Z,7.2
2022-08-18T17:00:00.675Z,3.4
2022-08-18T17:01:58.224Z,3.8
2022-08-18T17:03:55.580Z,6.3
2022-08-18T17:05:53.017Z,5
2022-08-18T17:07:58.471Z,2.4
2022-08-18T17:09:55.910Z,4.2
2022-08-18T17:11:53.362Z,3.9
2022-08-18T17:14:16.177Z,4.8
2022-08-18T17:16:13.556Z,5.2
2022-08-18T17:18:11.017Z,7.8
2022-08-18T17:20:18.817Z,5.5
2022-08-18T17:22:13.870Z,2.1
2022-08-18T17:24:11.485Z,5
2022-08-18T17:26:08.753Z,6.8
2022-08-18T17:28:09.994Z,2.9
2022-08-18T17:34:06.455Z,15.3
2022-08-18T17:38:01.420Z,3.2
2022-08-18T17:39:58.826Z,7.2
2022-08-18T17:41:56.218Z,7.2
2022-08-18T17:43:53.649Z,3.2
2022-08-18T17:45:51.090Z,6.5
2022-08-18T17:47:56.527Z,10.9
2022-08-18T17:49:54.416Z,4.2
2022-08-18T17:51:55.106Z,12.9
2022-08-18T17:53:48.846Z,3.5
2022-08-18T18:01:46.663Z,4.3
2022-08-18T18:05:42.155Z,3.2
2022-08-18T18:06:46.294Z,3.2
2022-08-18T18:10:43.037Z,6.7
2022-08-18T18:12:37.256Z,6.8
2022-08-18T18:14:42.709Z,4.4
2022-08-18T18:16:40.139Z,3.6
2022-08-18T18:18:37.616Z,4.7
2022-08-18T18:22:32.571Z,14.8
2022-08-18T18:24:30.045Z,3.6
2022-08-18T18:26:27.503Z,3.8
2022-08-18T18:34:27.840Z,3.4
2022-08-18T18:38:20.280Z,9.9
2022-08-18T18:40:17.757Z,2.3
2022-08-18T18:42:23.224Z,2.7
2022-08-18T18:44:20.705Z,3.4
2022-08-18T18:46:19.323Z,3.4
2022-08-18T18:48:38.664Z,15
2022-08-18T18:50:13.112Z,5.6
2022-08-18T18:52:10.607Z,2.6
2022-08-18T18:56:13.563Z,3.9
2022-08-18T18:58:11.062Z,3.3
2022-08-18T19:00:08.547Z,5.7
2022-08-18T19:03:08.772Z,4.9
2022-08-18T19:05:06.269Z,5.8
2022-08-18T19:07:03.750Z,3.6
2022-08-18T19:09:09.220Z,6.7
2022-08-18T19:15:01.732Z,5.1
2022-08-18T19:16:59.192Z,9.5
2022-08-18T19:18:57.918Z,5
2022-08-18T19:22:02.242Z,6.1
2022-08-18T19:22:59.704Z,7.9
2022-08-18T19:26:54.723Z,6.9
2022-08-18T19:30:49.727Z,4.6
2022-08-18T19:32:47.278Z,5.2
2022-08-18T19:34:52.570Z,10.8
2022-08-18T19:36:50.286Z,7.7
2022-08-18T19:38:47.783Z,11.2
2022-08-18T19:40:45.285Z,6.3
2022-08-18T19:42:42.832Z,4.3
2022-08-18T19:44:47.211Z,8.8
2022-08-18T19:46:37.891Z,3.7
2022-08-18T19:48:35.399Z,4.2
2022-08-18T19:50:40.878Z,4.2
2022-08-18T19:52:45.660Z,4.2
2022-08-18T19:54:35.921Z,4.8
2022-08-18T19:55:38.697Z,2.6
2022-08-18T19:57:37.768Z,4.2
2022-08-18T19:59:35.424Z,4.5
2022-08-18T20:01:32.849Z,5.2
2022-08-18T20:03:38.297Z,7.2
2022-08-18T20:05:35.873Z,4
2022-08-18T20:07:33.390Z,4.9
2022-08-18T20:09:30.960Z,14
2022-08-18T20:11:41.441Z,6.3
2022-08-18T20:13:26.013Z,3.1
2022-08-18T20:15:23.538Z,3.6
2022-08-18T20:17:29.043Z,4.6
2022-08-18T20:19:26.567Z,4.3
2022-08-18T20:23:21.657Z,6
2022-08-18T20:27:16.748Z,5.6
2022-08-18T20:29:14.259Z,6.8
2022-08-18T20:31:19.765Z,7.1
2022-08-18T20:33:17.334Z,7.8
2022-08-18T20:35:14.878Z,9.1
2022-08-18T20:37:12.404Z,4.3
2022-08-18T20:39:09.970Z,6.7
2022-08-18T20:41:07.510Z,6.3
2022-08-18T20:43:07.152Z,4.7
2022-08-18T20:45:10.587Z,6.5
2022-08-18T20:47:08.123Z,11
2022-08-18T20:49:05.704Z,3.8
2022-08-18T20:51:32.540Z,8.1
2022-08-18T20:53:30.424Z,5.2
2022-08-18T20:55:27.640Z,6
2022-08-18T20:59:30.730Z,4.1
2022-08-18T21:01:28.271Z,5.2
2022-08-18T21:03:25.817Z,4.7
2022-08-18T21:05:28.165Z,6.6
2022-08-18T21:07:35.899Z,16.9
2022-08-18T21:09:18.508Z,4.2
2022-08-18T21:11:30.898Z,6.5
2022-08-18T21:13:21.603Z,6.4
2022-08-18T21:15:19.137Z,4.6
2022-08-18T21:17:16.697Z,6.3
2022-08-18T21:23:09.392Z,7.4
2022-08-18T21:25:14.953Z,6.5
2022-08-18T21:27:12.572Z,5.8
2022-08-18T21:29:10.078Z,9.6
2022-08-18T21:31:42.410Z,5.5
2022-08-18T21:33:05.205Z,8.2
2022-08-18T21:35:02.762Z,6.1
2022-08-18T21:37:00.314Z,4.3
2022-08-18T21:39:06.649Z,5.6
2022-08-18T21:41:03.430Z,6
2022-08-18T21:43:01.121Z,5.5
2022-08-18T21:44:03.783Z,6.3
2022-08-18T21:47:58.901Z,4.1
2022-08-18T21:49:56.482Z,6.7
2022-08-18T21:52:01.985Z,5.9
2022-08-18T21:55:57.106Z,14.5
2022-08-18T22:01:49.823Z,6.7
2022-08-18T22:03:47.394Z,8.5
2022-08-18T22:05:57.846Z,6.7
2022-08-18T22:09:48.102Z,5.3
2022-08-18T22:12:02.107Z,8.7
2022-08-18T22:15:40.761Z,4.6
2022-08-18T22:17:38.373Z,7.1
2022-08-18T22:19:43.894Z,5.1
2022-08-18T22:21:41.459Z,6.7
2022-08-18T22:23:39.623Z,8
2022-08-18T22:25:36.603Z,7.2
2022-08-18T22:33:34.852Z,7.7
2022-08-18T22:37:30.021Z,6.6
2022-08-18T22:38:32.787Z,15.3
2022-08-18T22:40:30.356Z,6.1
2022-08-18T22:42:27.961Z,8.6
2022-08-18T22:44:25.537Z,10.8
2022-08-18T22:50:26.232Z,18.2
2022-08-18T22:52:30.054Z,7.1
2022-08-18T22:54:21.403Z,10.8
2022-08-18T22:56:27.371Z,9.4
2022-08-18T22:58:22.081Z,10.1
2022-08-18T23:00:22.997Z,11.7
2022-08-18T23:02:22.156Z,9.1
2022-08-18T23:04:17.308Z,26.3
2022-08-18T23:06:14.863Z,11.4
2022-08-18T23:10:13.989Z,9.3
2022-08-18T23:12:07.607Z,21.9
2022-08-18T23:14:13.143Z,12.3
2022-08-18T23:18:08.312Z,13.1
2022-08-18T23:20:05.924Z,11
2022-08-18T23:22:03.495Z,11.8
2022-08-18T23:24:01.096Z,12.6
2022-08-18T23:28:04.215Z,17.2
2022-08-18T23:30:01.789Z,23.8
2022-08-18T23:31:59.387Z,12.8
2022-08-18T23:33:02.149Z,14.1
2022-08-18T23:34:59.747Z,13
2022-08-18T23:36:57.339Z,16.7
2022-08-18T23:38:54.943Z,11.4
2022-08-18T23:41:00.498Z,13.6
2022-08-18T23:42:58.055Z,18.8
2022-08-18T23:44:55.665Z,13.8
2022-08-18T23:46:53.247Z,13.5
2022-08-18T23:48:50.826Z,17.3
2022-08-18T23:50:48.431Z,18.1
2022-08-18T23:52:45.997Z,21.4
2022-08-18T23:54:51.562Z,15.2
2022-08-18T23:56:49.155Z,19
2022-08-18T23:58:56.855Z,14.2
